Time;durP1;ratioP1;P1;durP2;ratioP2;P2;SDS_P1;SDS_P2;PMS_P1;PMS_P2;Temp;Humidity;BMP_temperature;BMP_pressure;BME280_temperature;BME280_humidity;BME280_pressure;Samples;Min_cycle;Max_cycle;Signal;HPM_P1;HPM_P2
2022/05/21 00:00:21;;;;;;;20.50;3.33;;;;;;;10.66;100.00;101984.97;5074342;28;20115;-80
2022/05/21 00:02:48;;;;;;;14.38;3.25;;;;;;;10.72;100.00;101976.56;5073854;28;20032;-80
2022/05/21 00:05:15;;;;;;;19.70;3.45;;;;;;;10.76;100.00;101975.34;5073904;28;20033;-80
2022/05/21 00:07:42;;;;;;;15.68;3.30;;;;;;;10.86;100.00;101970.22;5073656;28;20128;-80
2022/05/21 00:10:12;;;;;;;14.82;3.63;;;;;;;10.90;100.00;101975.19;5073775;28;20033;-80
2022/05/21 00:12:38;;;;;;;14.70;3.28;;;;;;;10.91;100.00;101987.53;5073424;28;20397;-80
2022/05/21 00:15:04;;;;;;;16.42;3.03;;;;;;;10.98;100.00;101989.75;5073936;28;20029;-80
2022/05/21 00:17:29;;;;;;;12.95;3.53;;;;;;;11.05;100.00;101993.66;5073449;28;20028;-80
2022/05/21 00:19:55;;;;;;;28.15;3.78;;;;;;;11.10;100.00;101988.84;5073283;28;20043;-80
2022/05/21 00:22:20;;;;;;;25.60;3.88;;;;;;;11.16;100.00;101991.03;5073328;28;20116;-80
2022/05/21 00:24:45;;;;;;;23.05;3.42;;;;;;;11.25;100.00;101989.50;5072929;28;20123;-80
2022/05/21 00:27:11;;;;;;;16.38;3.95;;;;;;;11.29;100.00;101994.47;5073471;28;20032;-80
2022/05/21 00:29:37;;;;;;;17.02;3.80;;;;;;;11.33;100.00;101983.59;5072808;28;20261;-80
2022/05/21 00:32:03;;;;;;;21.40;3.38;;;;;;;11.35;100.00;101987.00;5055481;28;20045;-80
2022/05/21 00:34:28;;;;;;;12.75;2.72;;;;;;;11.38;100.00;101989.44;5072357;28;20411;-80
2022/05/21 00:36:54;;;;;;;20.55;4.28;;;;;;;11.40;100.00;101992.81;5073205;28;20476;-79
2022/05/21 00:39:19;;;;;;;19.00;4.00;;;;;;;11.44;100.00;101983.63;5073468;28;20397;-79
2022/05/21 00:41:45;;;;;;;26.50;3.45;;;;;;;11.49;100.00;101994.78;5072584;28;20119;-80
2022/05/21 00:44:11;;;;;;;25.02;3.92;;;;;;;11.52;100.00;102002.53;5054676;28;20082;-80
2022/05/21 00:46:42;;;;;;;16.90;3.50;;;;;;;11.55;100.00;101999.63;5072953;28;20441;-78
2022/05/21 00:49:27;;;;;;;13.38;3.10;;;;;;;11.56;100.00;101995.19;5072906;28;20033;-79
2022/05/21 00:51:58;;;;;;;24.55;3.20;;;;;;;11.56;100.00;102003.16;5072312;28;20029;-80
2022/05/21 00:54:32;;;;;;;15.40;3.35;;;;;;;11.53;100.00;101988.25;5072571;28;20099;-79
2022/05/21 00:57:04;;;;;;;21.35;3.10;;;;;;;11.54;100.00;101992.63;5054394;28;20036;-80
2022/05/21 00:59:47;;;;;;;24.85;4.28;;;;;;;11.50;100.00;101990.31;5072374;28;20035;-80
2022/05/21 01:02:17;;;;;;;29.15;4.43;;;;;;;11.46;100.00;101990.56;5054724;28;20372;-80
2022/05/21 01:04:44;;;;;;;14.27;3.28;;;;;;;11.44;100.00;101989.81;5071998;28;20128;-80
2022/05/21 01:07:10;;;;;;;21.45;3.40;;;;;;;11.46;100.00;101995.00;5072237;28;20029;-79
2022/05/21 01:09:39;;;;;;;25.13;4.50;;;;;;;11.42;100.00;101994.41;5071960;28;20039;-79
2022/05/21 01:12:06;;;;;;;16.58;3.67;;;;;;;11.41;100.00;101992.69;5072306;28;20048;-78
2022/05/21 01:14:32;;;;;;;24.05;4.80;;;;;;;11.44;100.00;101995.13;5072262;28;20120;-80
2022/05/21 01:17:00;;;;;;;20.02;4.28;;;;;;;11.47;100.00;101999.38;5071857;28;20036;-80
2022/05/21 01:19:25;;;;;;;23.50;4.47;;;;;;;11.48;100.00;101995.78;5072321;28;20085;-80
2022/05/21 01:21:51;;;;;;;25.10;3.90;;;;;;;11.44;100.00;101996.97;5072384;28;20360;-78
2022/05/21 01:24:17;;;;;;;20.55;3.55;;;;;;;11.40;100.00;101990.16;5072163;28;20079;-78
2022/05/21 01:26:43;;;;;;;28.73;4.13;;;;;;;11.35;100.00;101995.00;5071962;28;20412;-79
2022/05/21 01:29:29;;;;;;;28.25;3.88;;;;;;;11.33;100.00;102007.56;5072208;28;20035;-79
2022/05/21 01:31:55;;;;;;;20.95;4.03;;;;;;;11.36;100.00;102004.66;5072084;28;20048;-77
2022/05/21 01:34:21;;;;;;;22.50;3.97;;;;;;;11.31;100.00;101999.69;5072446;28;20032;-77
2022/05/21 01:36:47;;;;;;;15.70;3.20;;;;;;;11.28;100.00;101989.25;5071545;28;20119;-78
2022/05/21 01:39:13;;;;;;;20.38;3.72;;;;;;;11.24;100.00;101998.44;5071931;28;20147;-78
2022/05/21 01:41:45;;;;;;;27.02;4.95;;;;;;;11.18;100.00;101997.13;5071929;28;20039;-78
2022/05/21 01:46:56;;;;;;;19.52;3.40;;;;;;;11.09;100.00;102003.09;5071730;28;20071;-79
2022/05/21 01:49:21;;;;;;;25.33;5.20;;;;;;;11.05;100.00;101991.84;5072904;28;20032;-80
2022/05/21 01:51:47;;;;;;;23.58;3.75;;;;;;;11.00;100.00;101994.00;5054522;28;20409;-78
2022/05/21 01:54:12;;;;;;;31.15;4.28;;;;;;;10.96;100.00;101999.66;5071875;28;20060;-79
2022/05/21 01:56:38;;;;;;;19.65;4.05;;;;;;;10.92;100.00;101994.56;5071352;28;20101;-78
2022/05/21 01:59:03;;;;;;;35.58;4.30;;;;;;;10.86;100.00;101997.66;5053764;28;20028;-78
2022/05/21 02:01:29;;;;;;;27.90;4.20;;;;;;;10.82;100.00;102012.16;5071847;28;20116;-78
2022/05/21 02:03:54;;;;;;;23.77;3.67;;;;;;;10.85;100.00;102005.78;5071232;28;20040;-79
2022/05/21 02:06:19;;;;;;;19.42;3.97;;;;;;;10.85;100.00;102006.63;5071355;28;20464;-79
2022/05/21 02:08:45;;;;;;;25.55;3.67;;;;;;;10.82;100.00;102013.97;5071951;28;20043;-79
2022/05/21 02:11:12;;;;;;;22.65;3.50;;;;;;;10.80;100.00;102014.09;5072214;28;20357;-78
2022/05/21 02:13:37;;;;;;;25.48;4.32;;;;;;;10.75;100.00;102008.28;5054009;28;20032;-77
2022/05/21 02:16:03;;;;;;;19.98;4.63;;;;;;;10.74;100.00;102007.41;5072099;28;20449;-78
2022/05/21 02:18:29;;;;;;;25.25;3.90;;;;;;;10.76;100.00;102020.59;5071749;28;20049;-78
2022/05/21 02:20:54;;;;;;;32.58;4.60;;;;;;;10.78;100.00;102008.03;5071519;28;20123;-79
2022/05/21 02:23:20;;;;;;;26.08;4.22;;;;;;;10.78;100.00;102008.03;5071652;28;20058;-79
2022/05/21 02:25:46;;;;;;;15.38;3.28;;;;;;;10.83;100.00;102013.03;5071300;28;20510;-78
2022/05/21 02:28:12;;;;;;;14.57;3.05;;;;;;;10.82;100.00;102017.47;5071581;28;20020;-79
2022/05/21 02:30:38;;;;;;;18.58;3.45;;;;;;;10.77;100.00;102014.31;5071029;28;20490;-81
2022/05/21 02:33:05;;;;;;;22.23;3.60;;;;;;;10.73;100.00;102016.38;5071249;28;20142;-79
2022/05/21 02:35:30;;;;;;;22.50;3.20;;;;;;;10.71;100.00;102020.94;5071418;28;20434;-78
2022/05/21 02:40:39;;;;;;;28.00;3.60;;;;;;;10.74;100.00;102018.06;5071992;28;20368;-80
2022/05/21 02:43:05;;;;;;;18.92;3.60;;;;;;;10.74;100.00;102014.56;5071400;28;20025;-79
2022/05/21 02:45:30;;;;;;;21.55;3.42;;;;;;;10.74;100.00;102019.88;5071254;28;20036;-78
2022/05/21 02:47:57;;;;;;;19.88;4.28;;;;;;;10.72;100.00;102013.81;5071202;28;20460;-79
2022/05/21 02:50:27;;;;;;;20.90;3.70;;;;;;;10.69;100.00;102011.34;5071472;28;20039;-79
2022/05/21 02:52:52;;;;;;;17.83;3.83;;;;;;;10.67;100.00;102021.28;5071710;28;20035;-77
2022/05/21 02:55:18;;;;;;;28.38;4.22;;;;;;;10.63;100.00;102018.00;5071112;28;20120;-78
2022/05/21 02:57:44;;;;;;;20.17;3.20;;;;;;;10.61;100.00;102021.72;5073897;28;20504;-80
2022/05/21 03:00:14;;;;;;;18.15;3.78;;;;;;;10.63;100.00;102022.44;5075055;28;20456;-78
2022/05/21 03:02:39;;;;;;;23.83;3.28;;;;;;;10.63;100.00;102020.66;5075739;28;20059;-79
2022/05/21 03:05:06;;;;;;;19.05;3.53;;;;;;;10.60;100.00;102015.56;5074658;28;20460;-79
2022/05/21 03:07:44;;;;;;;21.17;3.08;;;;;;;10.58;100.00;102025.44;5074692;28;20032;-80
2022/05/21 03:10:22;;;;;;;21.35;3.35;;;;;;;10.57;100.00;102021.09;5075040;28;20037;-80
2022/05/21 03:12:59;;;;;;;17.20;4.57;;;;;;;10.54;100.00;102031.97;5074915;28;20080;-79
2022/05/21 03:15:36;;;;;;;19.15;2.88;;;;;;;10.55;100.00;102026.53;5075073;28;20026;-79
2022/05/21 03:18:04;;;;;;;15.40;3.25;;;;;;;10.52;100.00;102023.22;5075185;28;20028;-79
2022/05/21 03:20:30;;;;;;;22.38;3.25;;;;;;;10.54;100.00;102027.50;5074925;28;20035;-80
2022/05/21 03:22:55;;;;;;;21.60;3.50;;;;;;;10.57;100.00;102027.25;5074700;28;20380;-79
2022/05/21 03:25:21;;;;;;;25.60;3.53;;;;;;;10.59;100.00;102028.00;5074729;28;20078;-80
2022/05/21 03:27:46;;;;;;;20.92;3.95;;;;;;;10.57;100.00;102031.75;5074467;28;20120;-81
2022/05/21 03:30:16;;;;;;;25.35;3.95;;;;;;;10.55;100.00;102036.31;5075287;28;20478;-80
2022/05/21 03:32:42;;;;;;;29.80;4.25;;;;;;;10.53;100.00;102033.75;5074080;28;20079;-79
2022/05/21 03:35:08;;;;;;;24.73;3.55;;;;;;;10.51;100.00;102040.13;5074190;28;20037;-79
2022/05/21 03:37:36;;;;;;;22.15;3.67;;;;;;;10.48;100.00;102029.72;5055936;28;20040;-80
2022/05/21 03:40:01;;;;;;;18.98;3.13;;;;;;;10.55;100.00;102042.50;5074337;28;20032;-79
2022/05/21 03:42:27;;;;;;;15.40;3.35;;;;;;;10.54;100.00;102043.44;5074531;28;20056;-79
2022/05/21 03:44:52;;;;;;;20.30;3.88;;;;;;;10.53;100.00;102032.91;5073954;28;20024;-79
2022/05/21 03:47:17;;;;;;;20.67;4.18;;;;;;;10.48;100.00;102041.22;5073695;28;20090;-79
2022/05/21 03:49:43;;;;;;;17.38;3.10;;;;;;;10.43;100.00;102037.19;5056465;28;20040;-80
2022/05/21 03:52:08;;;;;;;23.23;4.10;;;;;;;10.44;100.00;102049.53;5074595;28;20158;-79
2022/05/21 03:54:34;;;;;;;26.67;4.00;;;;;;;10.39;100.00;102042.72;5074177;28;20029;-79
2022/05/21 03:57:00;;;;;;;26.42;4.55;;;;;;;10.41;100.00;102039.97;5073652;28;20059;-77
2022/05/21 03:59:25;;;;;;;15.55;3.10;;;;;;;10.42;100.00;102041.69;5073902;28;20384;-79
2022/05/21 04:01:51;;;;;;;26.25;3.45;;;;;;;10.43;100.00;102038.03;5073505;28;20044;-80
2022/05/21 04:04:16;;;;;;;22.45;3.78;;;;;;;10.43;100.00;102045.16;5073715;28;20344;-80
2022/05/21 04:06:41;;;;;;;18.67;2.90;;;;;;;10.40;100.00;102039.13;5073681;28;20032;-79
2022/05/21 04:09:07;;;;;;;19.08;3.92;;;;;;;10.38;100.00;102051.66;5072454;28;20040;-80
2022/05/21 04:11:32;;;;;;;25.15;3.83;;;;;;;10.39;100.00;102055.19;5055138;28;20024;-79
2022/05/21 04:13:58;;;;;;;21.48;3.88;;;;;;;10.37;99.75;102047.28;5073316;28;20103;-80
2022/05/21 04:16:23;;;;;;;15.77;3.00;;;;;;;10.42;99.31;102054.97;5055447;28;20044;-79
2022/05/21 04:18:48;;;;;;;19.15;3.03;;;;;;;10.42;99.25;102065.63;5073021;28;20040;-80
2022/05/21 04:21:14;;;;;;;16.35;3.72;;;;;;;10.40;99.27;102057.75;5073408;28;20101;-78
2022/05/21 04:23:39;;;;;;;24.35;3.88;;;;;;;10.40;98.80;102063.06;5072827;28;20056;-79
2022/05/21 04:26:05;;;;;;;30.63;3.97;;;;;;;10.43;98.68;102069.97;5055137;28;20059;-80
2022/05/21 04:28:30;;;;;;;21.75;3.90;;;;;;;10.43;98.42;102064.63;5073459;28;20033;-81
2022/05/21 04:30:56;;;;;;;22.38;3.10;;;;;;;10.41;98.25;102066.56;5055661;28;20037;-80
2022/05/21 04:33:21;;;;;;;23.30;3.13;;;;;;;10.38;98.71;102070.28;5072818;28;20052;-80
2022/05/21 04:38:34;;;;;;;31.67;3.80;;;;;;;10.36;98.78;102076.66;5073245;28;20095;-80
2022/05/21 04:40:59;;;;;;;20.98;2.67;;;;;;;10.40;98.55;102086.13;5073107;28;20056;-81
2022/05/21 04:43:25;;;;;;;27.77;3.88;;;;;;;10.43;97.81;102074.44;5072767;28;20104;-80
2022/05/21 04:45:50;;;;;;;12.23;2.67;;;;;;;10.41;97.86;102072.72;5072725;28;20056;-80
2022/05/21 04:48:15;;;;;;;16.30;2.78;;;;;;;10.49;97.30;102080.16;5072442;28;20074;-78
2022/05/21 04:50:41;;;;;;;17.08;3.03;;;;;;;10.50;97.40;102073.91;5073407;28;20051;-80
2022/05/21 04:53:07;;;;;;;17.58;3.42;;;;;;;10.52;97.42;102081.78;5072794;28;20096;-79
2022/05/21 04:55:32;;;;;;;26.23;3.10;;;;;;;10.57;97.32;102074.31;5073232;28;20389;-80
2022/05/21 04:57:58;;;;;;;21.92;3.30;;;;;;;10.62;96.60;102081.97;5073431;28;20064;-81
2022/05/21 05:00:24;;;;;;;13.07;2.92;;;;;;;10.64;96.47;102091.53;5073820;28;20029;-80
2022/05/21 05:02:49;;;;;;;14.43;2.92;;;;;;;10.66;96.42;102092.28;5073875;28;20123;-81
2022/05/21 05:05:14;;;;;;;17.08;3.42;;;;;;;10.68;96.63;102102.84;5073290;28;20047;-81
2022/05/21 05:07:40;;;;;;;16.00;4.45;;;;;;;10.70;96.10;102103.56;5073309;28;20039;-81
2022/05/21 05:10:07;;;;;;;17.05;3.90;;;;;;;10.75;95.76;102101.44;5072583;28;20488;-81
2022/05/21 05:12:33;;;;;;;22.75;2.85;;;;;;;10.81;95.48;102106.31;5073067;28;20074;-81
2022/05/21 05:14:59;;;;;;;14.57;2.72;;;;;;;10.81;95.69;102114.31;5073137;28;20148;-83
2022/05/21 05:17:24;;;;;;;15.57;2.67;;;;;;;10.84;95.44;102114.09;5073011;28;20082;-81
2022/05/21 05:19:51;;;;;;;21.83;3.30;;;;;;;10.89;95.30;102113.75;5073460;28;20032;-80
2022/05/21 05:22:16;;;;;;;21.98;3.05;;;;;;;10.94;94.65;102122.25;5072754;28;20060;-81
2022/05/21 05:24:42;;;;;;;19.30;3.05;;;;;;;10.97;94.54;102118.53;5072800;28;20060;-79
2022/05/21 05:27:07;;;;;;;22.90;3.05;;;;;;;11.00;93.91;102132.50;5072659;28;20039;-80
2022/05/21 05:29:33;;;;;;;21.23;3.70;;;;;;;11.04;93.97;102125.13;5072635;28;20071;-81
2022/05/21 05:31:59;;;;;;;20.73;3.60;;;;;;;11.05;93.66;102125.00;5073009;28;20052;-82
2022/05/21 05:34:24;;;;;;;13.13;2.80;;;;;;;11.07;94.22;102132.88;5072561;28;20036;-80
2022/05/21 05:36:51;;;;;;;19.65;3.13;;;;;;;11.12;93.32;102128.06;5072751;28;20033;-81
2022/05/21 05:39:17;;;;;;;23.85;4.05;;;;;;;11.16;93.70;102132.22;5072487;28;20047;-81
2022/05/21 05:41:42;;;;;;;20.25;3.08;;;;;;;11.22;93.28;102136.25;5072560;28;20037;-81
2022/05/21 05:44:08;;;;;;;17.23;3.05;;;;;;;11.25;92.80;102128.03;5072230;28;20115;-81
2022/05/21 05:46:33;;;;;;;16.45;2.58;;;;;;;11.31;92.81;102134.75;5072203;28;20028;-81
2022/05/21 05:48:59;;;;;;;21.25;3.60;;;;;;;11.35;92.80;102125.56;5072175;28;20036;-80
2022/05/21 05:51:26;;;;;;;22.05;3.85;;;;;;;11.40;92.50;102134.06;5072871;28;20124;-80
2022/05/21 05:53:52;;;;;;;16.70;2.80;;;;;;;11.46;91.87;102129.13;5072483;28;20024;-80
2022/05/21 05:56:18;;;;;;;17.27;3.15;;;;;;;11.56;91.22;102134.63;5072088;28;20032;-79
2022/05/21 06:01:27;;;;;;;19.23;2.75;;;;;;;11.76;90.08;102130.47;5073459;28;20052;-80
2022/05/21 06:03:54;;;;;;;17.73;3.00;;;;;;;11.86;89.33;102133.28;5072795;28;20104;-81
2022/05/21 06:06:20;;;;;;;19.63;2.88;;;;;;;11.98;88.52;102140.38;5054660;28;20337;-81
2022/05/21 06:08:45;;;;;;;19.10;2.70;;;;;;;12.05;87.82;102139.94;5072459;28;20123;-79
2022/05/21 06:11:12;;;;;;;20.45;3.28;;;;;;;12.12;87.39;102141.16;5072700;28;20036;-80
2022/05/21 06:13:37;;;;;;;17.00;2.90;;;;;;;12.20;87.53;102143.25;5073005;28;20094;-81
2022/05/21 06:16:04;;;;;;;23.70;3.83;;;;;;;12.30;87.98;102144.22;5072498;28;20032;-80
2022/05/21 06:18:29;;;;;;;19.73;2.63;;;;;;;12.39;87.05;102145.34;5072390;28;20506;-81
2022/05/21 06:20:58;;;;;;;13.63;3.20;;;;;;;12.51;86.14;102147.06;5072742;28;20637;-81
2022/05/21 06:23:24;;;;;;;23.73;3.20;;;;;;;12.64;85.74;102157.63;5072792;28;20039;-80
2022/05/21 06:25:49;;;;;;;18.55;3.00;;;;;;;12.68;84.36;102156.41;5072472;28;20021;-80
2022/05/21 06:28:15;;;;;;;17.55;3.20;;;;;;;12.68;84.21;102157.25;5072592;28;20032;-81
2022/05/21 06:30:42;;;;;;;15.30;3.03;;;;;;;12.74;84.10;102163.09;5072487;28;20068;-79
2022/05/21 06:33:19;;;;;;;26.58;3.35;;;;;;;12.78;83.82;102169.88;5076214;28;20053;-81
2022/05/21 06:35:46;;;;;;;17.98;3.03;;;;;;;12.80;82.98;102167.94;5076913;28;20029;-80
2022/05/21 06:38:12;;;;;;;17.55;3.25;;;;;;;12.91;83.79;102175.09;5076223;28;20055;-80
2022/05/21 06:40:37;;;;;;;16.13;3.08;;;;;;;13.06;83.32;102179.22;5077160;28;20033;-80
2022/05/21 06:43:03;;;;;;;14.57;2.72;;;;;;;13.16;82.74;102190.03;5076707;28;20032;-80
2022/05/21 06:45:30;;;;;;;17.10;3.28;;;;;;;13.19;81.59;102195.13;5076551;28;20051;-79
2022/05/21 06:48:04;;;;;;;16.13;2.80;;;;;;;13.16;81.36;102188.19;5076158;28;20041;-79
2022/05/21 06:50:30;;;;;;;14.02;2.78;;;;;;;13.10;80.90;102194.03;5076334;28;20028;-77
2022/05/21 06:52:56;;;;;;;14.52;2.83;;;;;;;13.13;80.67;102200.97;5076434;28;20357;-80
2022/05/21 06:55:22;;;;;;;17.95;2.92;;;;;;;13.10;81.85;102206.56;5076079;28;20029;-79
2022/05/21 06:57:48;;;;;;;18.38;3.85;;;;;;;13.22;82.71;102197.56;5058550;28;20111;-80
2022/05/21 07:00:15;;;;;;;23.30;3.20;;;;;;;13.30;81.52;102199.59;5076423;28;20036;-81
2022/05/21 07:02:41;;;;;;;15.30;3.50;;;;;;;13.38;80.86;102211.41;5076461;28;20031;-78
2022/05/21 07:07:51;;;;;;;19.33;3.05;;;;;;;13.37;80.38;102207.03;5075775;28;20059;-79
2022/05/21 07:10:22;;;;;;;19.67;3.08;;;;;;;13.45;80.20;102209.09;5075553;28;20036;-78
2022/05/21 07:12:49;;;;;;;14.48;2.50;;;;;;;13.48;79.27;102207.97;5075767;28;20024;-79
2022/05/21 07:15:15;;;;;;;12.00;2.75;;;;;;;13.58;78.94;102215.16;5075563;28;20028;-80
2022/05/21 07:17:41;;;;;;;17.85;3.25;;;;;;;13.68;79.80;102215.25;5075512;28;20037;-80
2022/05/21 07:20:10;;;;;;;15.32;3.17;;;;;;;13.86;79.85;102214.69;5075347;28;20063;-80
2022/05/21 07:22:40;;;;;;;17.38;2.90;;;;;;;13.97;78.32;102211.97;5075251;28;20028;-78
2022/05/21 07:25:06;;;;;;;16.70;2.67;;;;;;;13.96;77.22;102226.34;5075198;28;20036;-79
2022/05/21 07:27:31;;;;;;;16.52;3.25;;;;;;;13.99;77.54;102228.75;5057612;28;20028;-80
2022/05/21 07:29:56;;;;;;;19.20;3.30;;;;;;;13.97;77.16;102233.38;5075321;28;20245;-79
2022/05/21 07:32:24;;;;;;;17.65;3.10;;;;;;;13.97;77.53;102233.38;5074987;28;20052;-79
2022/05/21 07:35:06;;;;;;;15.48;3.20;;;;;;;14.02;77.11;102244.56;5074987;28;20036;-81
2022/05/21 07:37:31;;;;;;;23.95;3.28;;;;;;;14.09;77.14;102236.84;5075221;28;20057;-80
2022/05/21 07:39:56;;;;;;;15.13;3.25;;;;;;;14.11;75.92;102238.44;5075301;28;20123;-81
2022/05/21 07:42:22;;;;;;;17.33;3.40;;;;;;;14.18;77.12;102241.47;5074387;28;20056;-82
2022/05/21 07:44:48;;;;;;;18.58;3.28;;;;;;;14.28;76.09;102254.91;5074478;28;20020;-82
2022/05/21 07:47:13;;;;;;;18.67;3.47;;;;;;;14.39;75.26;102254.88;5074998;28;20059;-82
2022/05/21 07:49:39;;;;;;;22.55;3.50;;;;;;;14.46;75.39;102261.41;5075101;28;20482;-80
2022/05/21 07:52:05;;;;;;;19.17;3.35;;;;;;;14.66;75.78;102258.00;5056945;28;20506;-82
2022/05/21 07:54:31;;;;;;;18.88;3.05;;;;;;;14.88;74.59;102260.53;5075319;28;20457;-80
2022/05/21 07:56:56;;;;;;;14.63;2.70;;;;;;;15.09;74.11;102257.84;5074664;28;20037;-80
2022/05/21 07:59:22;;;;;;;26.08;4.03;;;;;;;15.34;72.32;102267.22;5075102;28;20125;-79
2022/05/21 08:01:48;;;;;;;16.63;3.40;;;;;;;15.28;70.64;102264.25;5074660;28;20063;-79
2022/05/21 08:04:14;;;;;;;23.15;3.33;;;;;;;15.27;71.27;102265.22;5074497;28;20056;-81
2022/05/21 08:06:39;;;;;;;26.15;3.50;;;;;;;15.24;70.71;102260.16;5040084;28;20476;-80
2022/05/21 08:09:05;;;;;;;19.90;3.45;;;;;;;15.33;70.31;102265.56;5056258;28;20217;-81
2022/05/21 08:11:30;;;;;;;18.42;3.35;;;;;;;15.47;71.26;102271.53;5056541;28;20032;-81
2022/05/21 08:13:56;;;;;;;18.50;3.30;;;;;;;15.56;70.62;102280.59;5056239;28;20059;-81
2022/05/21 08:16:22;;;;;;;13.07;3.13;;;;;;;15.65;68.89;102277.94;5074686;28;20032;-82
2022/05/21 08:18:48;;;;;;;18.55;3.83;;;;;;;15.77;71.26;102278.66;5074666;28;20032;-79
2022/05/21 08:21:13;;;;;;;16.10;2.88;;;;;;;15.89;69.41;102275.91;5074203;28;20039;-81
2022/05/21 08:29:06;;;;;;;22.23;3.47;;;;;;;16.40;67.75;102280.97;5075359;28;20075;-81
2022/05/21 08:31:32;;;;;;;15.52;3.00;;;;;;;16.66;65.13;102282.22;5074483;28;20032;-81
2022/05/21 08:33:57;;;;;;;15.70;3.40;;;;;;;17.01;63.84;102275.41;5074562;28;20410;-81
2022/05/21 08:36:22;;;;;;;16.60;3.58;;;;;;;17.32;63.72;102277.84;5073618;28;20142;-83
2022/05/21 08:38:48;;;;;;;21.55;3.65;;;;;;;17.48;61.62;102272.66;5073983;28;20376;-84
2022/05/21 08:41:23;;;;;;;18.95;3.28;;;;;;;17.98;61.21;102274.06;5073467;28;20202;-82
2022/05/21 08:43:55;;;;;;;16.02;3.28;;;;;;;18.65;59.14;102269.06;5073586;28;20034;-83
2022/05/21 08:46:20;;;;;;;;;;;;;;;18.53;56.95;102264.94;5074749;28;20028;-84
2022/05/21 08:48:59;;;;;;;16.47;3.07;;;;;;;18.30;57.30;102275.34;5055701;28;20240;-84
2022/05/21 08:51:33;;;;;;;12.27;2.53;;;;;;;18.02;59.10;102278.16;5074271;28;20320;-85
2022/05/21 08:54:03;;;;;;;12.73;2.75;;;;;;;18.22;57.91;102278.81;5055704;28;20078;-85
2022/05/21 08:56:29;;;;;;;17.98;3.40;;;;;;;18.25;57.82;102285.75;5073485;28;20033;-84
2022/05/21 08:59:08;;;;;;;13.43;3.30;;;;;;;18.85;56.37;102287.72;5055607;28;20472;-83
2022/05/21 09:01:44;;;;;;;14.90;3.17;;;;;;;19.14;54.55;102271.25;5073849;28;20034;-83
2022/05/21 09:04:12;;;;;;;15.85;3.80;;;;;;;18.74;55.18;102280.75;5073689;28;20082;-83
2022/05/21 09:06:58;;;;;;;16.75;3.42;;;;;;;18.42;56.84;102281.34;5073714;28;20045;-83
2022/05/21 09:09:57;;;;;;;15.13;3.60;;;;;;;18.37;55.88;102281.81;5073821;28;20024;-83
2022/05/21 09:12:55;;;;;;;16.73;3.72;;;;;;;18.51;55.45;102291.19;5055160;28;20063;-82
2022/05/21 09:18:11;;;;;;;14.05;3.45;;;;;;;18.95;54.68;102274.19;5073588;28;20161;-81
2022/05/21 09:20:48;;;;;;;17.48;3.67;;;;;;;18.91;54.07;102270.09;5072793;28;20032;-81
2022/05/21 09:23:13;;;;;;;16.80;3.28;;;;;;;17.93;57.21;102273.69;5073419;28;20035;-85
2022/05/21 09:25:39;;;;;;;14.50;2.97;;;;;;;17.88;57.51;102275.94;5073080;28;20036;-79
2022/05/21 09:28:08;;;;;;;17.58;3.13;;;;;;;18.17;57.07;102273.06;5055146;28;20035;-83
2022/05/21 09:30:40;;;;;;;16.80;3.10;;;;;;;18.59;56.47;102277.78;5073155;28;20498;-84
2022/05/21 09:33:24;;;;;;;13.63;3.00;;;;;;;18.63;55.74;102276.47;5073062;28;20048;-80
2022/05/21 09:35:59;;;;;;;19.10;3.22;;;;;;;18.33;56.67;102289.38;5072639;28;20399;-80
2022/05/21 09:38:27;;;;;;;14.15;2.80;;;;;;;17.55;57.73;102280.97;5073461;28;20083;-80
2022/05/21 09:41:23;;;;;;;16.35;3.10;;;;;;;17.80;59.31;102279.41;5072959;28;20419;-80
2022/05/21 09:47:12;;;;;;;16.27;3.13;;;;;;;19.32;53.43;102279.25;5073314;28;20459;-77
2022/05/21 09:49:39;;;;;;;17.80;3.80;;;;;;;19.59;52.58;102282.72;5072278;28;20429;-75
2022/05/21 09:52:19;;;;;;;14.20;3.22;;;;;;;19.61;52.42;102286.09;5072258;28;20369;-79
2022/05/21 09:54:45;;;;;;;17.83;3.30;;;;;;;19.35;52.77;102286.19;5054841;28;20028;-80
2022/05/21 09:57:30;;;;;;;13.95;3.33;;;;;;;19.21;53.04;102284.91;5072453;28;20040;-78
2022/05/21 10:00:33;;;;;;;16.20;3.35;;;;;;;18.65;55.24;102295.19;5072913;28;20107;-78
2022/05/21 10:03:01;;;;;;;15.27;3.20;;;;;;;18.25;56.17;102300.06;5072575;28;20225;-83
2022/05/21 10:05:38;;;;;;;16.40;4.00;;;;;;;18.20;56.07;102309.59;5072425;28;20061;-84
2022/05/21 10:11:00;;;;;;;16.42;3.17;;;;;;;18.64;55.75;102309.66;5072614;28;20044;-82
2022/05/21 10:13:45;;;;;;;14.90;3.10;;;;;;;18.29;57.14;102312.22;5072449;28;20059;-80
2022/05/21 10:16:28;;;;;;;19.75;3.80;;;;;;;18.55;56.87;102308.72;5072332;28;20028;-80
2022/05/21 10:19:30;;;;;;;20.95;3.63;;;;;;;18.76;55.82;102312.94;5072450;28;20352;-79
2022/05/21 10:22:10;;;;;;;13.73;3.53;;;;;;;19.01;54.63;102314.00;5028882;28;20090;-79
2022/05/21 10:25:01;;;;;;;17.00;3.78;;;;;;;19.14;53.10;102313.56;5072526;28;20035;-83
2022/05/21 10:27:29;;;;;;;21.92;3.47;;;;;;;18.93;53.03;102314.78;5055005;28;20028;-82
2022/05/21 10:30:01;;;;;;;20.38;3.40;;;;;;;19.27;54.20;102319.38;5072120;28;20478;-82
2022/05/21 10:32:46;;;;;;;24.52;4.13;;;;;;;19.53;54.30;102324.72;5072000;28;20123;-80
2022/05/21 10:35:39;;;;;;;24.02;4.10;;;;;;;19.85;52.68;102316.91;5072240;28;20111;-80
2022/05/21 10:38:11;;;;;;;15.50;2.80;;;;;;;20.83;49.87;102329.69;5038075;28;20021;-82
2022/05/21 10:40:43;;;;;;;;;;;;;;;20.99;49.04;102315.31;5072415;28;20120;-83
2022/05/21 10:43:23;;;;;;;18.10;3.22;;;;;;;21.22;48.55;102314.56;5072200;28;20387;-86
2022/05/21 10:46:15;;;;;;;18.95;3.60;;;;;;;21.70;47.80;102314.56;5071938;28;20622;-78
2022/05/21 10:49:14;;;;;;;14.60;3.17;;;;;;;21.09;47.64;102315.94;5072155;28;20028;-80
2022/05/21 10:52:08;;;;;;;11.75;2.53;;;;;;;20.60;47.40;102321.38;5071666;28;20112;-78
2022/05/21 10:54:55;;;;;;;14.63;3.35;;;;;;;19.64;49.93;102320.03;5072733;28;20035;-80
2022/05/21 10:57:38;;;;;;;14.38;3.25;;;;;;;19.67;51.39;102327.78;5072010;28;20507;-78
2022/05/21 11:00:09;;;;;;;12.90;2.92;;;;;;;19.65;51.71;102321.72;5072266;28;20082;-80
2022/05/21 11:02:55;;;;;;;16.88;3.22;;;;;;;20.11;51.83;102330.31;5072421;28;20028;-79
2022/05/21 11:05:32;;;;;;;16.25;3.25;;;;;;;20.25;50.06;102321.53;5054856;28;20395;-79
2022/05/21 11:08:09;;;;;;;17.05;3.13;;;;;;;20.59;49.00;102327.81;5071707;28;20024;-78
2022/05/21 11:10:50;;;;;;;16.90;3.47;;;;;;;21.51;47.00;102323.94;5072144;28;20029;-79
2022/05/21 11:13:21;;;;;;;17.63;3.58;;;;;;;22.33;44.57;102326.19;5072154;28;20375;-79
2022/05/21 11:15:56;;;;;;;20.08;3.60;;;;;;;22.00;45.84;102316.41;5072560;28;20031;-80
2022/05/21 11:18:39;;;;;;;21.67;3.33;;;;;;;21.17;47.91;102331.31;5074203;28;20029;-78
2022/05/21 11:21:30;;;;;;;17.80;3.47;;;;;;;20.99;47.41;102327.97;5075421;28;20479;-78
2022/05/21 11:24:05;;;;;;;;;;;;;;;20.82;47.92;102322.56;5058142;28;20032;-78
2022/05/21 11:26:36;;;;;;;15.93;2.85;;;;;;;21.12;47.63;102330.97;5075385;28;19908;-78
2022/05/21 11:29:14;;;;;;;;;;;;;;;21.39;48.59;102316.19;5075379;28;20063;-78
2022/05/21 11:37:29;;;;;;;13.00;3.33;;;;;;;21.37;46.64;102320.91;5075351;28;20059;-78
2022/05/21 11:39:58;;;;;;;16.17;2.88;;;;;;;20.55;46.84;102326.47;5075456;28;20122;-79
2022/05/21 11:42:33;;;;;;;12.40;3.58;;;;;;;20.71;48.23;102328.34;5075443;28;20488;-84
2022/05/21 11:45:08;;;;;;;13.70;2.88;;;;;;;21.03;45.64;102321.19;5075126;28;20032;-80
2022/05/21 11:47:33;;;;;;;9.30;3.08;;;;;;;21.72;45.39;102321.50;5057686;28;20400;-82
2022/05/21 11:50:02;;;;;;;15.30;3.22;;;;;;;21.47;44.46;102321.56;5074871;28;20028;-84
2022/05/21 11:52:28;;;;;;;16.83;3.60;;;;;;;21.88;44.31;102328.66;5075398;28;20028;-83
2022/05/21 11:54:53;;;;;;;15.48;3.45;;;;;;;22.10;45.75;102326.19;5075556;28;20465;-83
2022/05/21 11:57:42;;;;;;;20.02;3.38;;;;;;;22.03;43.81;102320.63;5073847;28;20057;-83